パラオ国際空港の過去48時間の天気

パラオ国際空港 (Babelthuap Island, Babelthuap/Koror Airport)

現在時刻: 5/26 10:39 +09 (5/26 01:39 UTC) 以下の時間は現地時間です。

過去48時間のMETAR気象情報
時間 風向 風速(m/s) 視程 気温(℃) 湿度(%) 気圧(hPa) 天気現象
26 09:50 5 10km以上 27 79 1011
26 08:50 4 10km以上 27 79 1011
26 07:50 静穏 0 10km以上 26 89 1011
26 05:50 静穏 0 10km以上 22 100 1010
26 04:50 静穏 0 10km以上 23 94 1008
26 03:50 静穏 0 10km以上 23 94 1009
26 02:50 2 10km以上 23 94 1009
26 01:50 東南東 3 10km以上 23 94 1010
26 00:50 南南東 4 10km以上 24 94 1010
25 23:50 南南西 2 10km以上 24 94 1011
25 22:50 西南西 3 10km以上 23 94 1012 弱いしゅう雨
25 21:50 3 10km以上 24 94 1012 弱いしゅう雨
25 20:50 南南西 5 10km以上 25 89 1012
25 19:50 - - 10km以上 25 83 1011
25 18:50 南南西 2 10km以上 25 89 1010
25 17:50 3 10km以上 25 83 1010 弱いしゅう雨
25 16:50 4 10km以上 25 83 1009
25 15:50 南南西 4 10km以上 25 89 1008
25 14:50 2 10km以上 25 89 1008 弱いしゅう雨
25 13:50 5 10km以上 24 89 1009 弱いしゅう雨
25 12:50 3 10km以上 25 89 1010 弱いしゅう雨
25 11:55 南東 4 10km以上 26 89 1010 弱いしゅう雨
25 10:50 東北東 2 10km以上 27 84 1011
25 09:50 北東 2 10km以上 26 84 1011
25 08:50 2 10km以上 25 94 1012
25 07:50 静穏 0 10km以上 24 94 1012
25 06:50 北北東 2 10km以上 23 100 1011
25 05:50 北北東 3 10km以上 23 100 1011
25 04:50 東北東 3 10km以上 23 100 1011 弱いしゅう雨
25 03:50 東北東 4 10km以上 23 100 1010 弱いしゅう雨
25 02:50 東北東 3 10km以上 24 94 1010
25 01:50 北東 3 10km以上 23 94 1010
25 00:50 東北東 2 10km以上 25 89 1010
24 23:50 東北東 3 10km以上 25 94 1011 弱いしゅう雨
24 22:50 3 10km以上 26 89 1012
24 21:50 北東 3 10km以上 24 94 1012
24 20:50 2 10km以上 24 94 1011 弱いしゅう雨
24 19:50 5 8050m 24 94 1011 しゅう雨
24 19:20 10 10km以上 25 94 1011 弱いしゅう雨
24 18:50 東北東 3 10km以上 24 94 1010
24 17:50 東北東 3 10km以上 23 100 1010 弱いしゅう雨
24 16:50 東北東 5 10km以上 27 84 1010
24 15:50 東北東 5 10km以上 27 84 1009
24 14:50 東北東 5 10km以上 28 79 1009
24 14:13 8 10km以上 28 84 1009 弱いしゅう雨
24 13:50 東北東 5 10km以上 28 79 1009
24 12:59 7 10km以上 28 79 1010 弱いしゅう雨
24 12:50 東北東 4 10km以上 29 74 1010
24 11:50 東北東 6 10km以上 29 74 1011
24 10:50 北東 5 10km以上 29 74 1011
PTRO 260050Z 09009KT 14SM BKN015 BKN120 BKN300 27/23 A2985
PTRO 252350Z 10007KT 13SM BKN015 BKN110 OVC290 27/23 A2986
PTRO 252250Z 00000KT 13SM BKN015 BKN110 OVC290 26/24 A2986 RMK CB ALQDS
PTRO 252050Z 00000KT 13SM BKN014CB BKN100 OVC280 22/22 A2983 RMK CB ALQDS
PTRO 251950Z 00000KT 13SM BKN014CB OVC280 23/22 A2978 RMK CB ALQDS
PTRO 251850Z 00000KT 13SM BKN014CB OVC280 23/22 A2980 RMK CB ALQDS
PTRO 251750Z 17004KT 13SM BKN014CB OVC280 23/22 A2979 RMK CB ALQDS
PTRO 251650Z 11006KT 13SM BKN014CB OVC280 23/22 A2981 RMK CB ALQDS
PTRO 251550Z 16007KT 13SM BKN014CB OVC280 24/23 A2983 RMK CB ALQDS
PTRO 251450Z 21004KT 13SM BKN015CB BKN110 BKN290 24/23 A2985 RMK CB ALQDS
PTRO 251350Z 25006G13KT 10SM -SHRA BKN015CB BKN110 OVC290 23/22 A2988 RMK CB ALQDS AND OHD
PTRO 251250Z 19005KT 8SM -SHRA BKN015CB BKN110 OVC290 24/23 A2989 RMK CB ALQDS AND OHD
PTRO 251150Z 20009G15KT 13SM BKN015CB BKN110 OVC290 25/23 A2987 RMK CB ALQDS
PTRO 251050Z 2108G15KT 13SM BKN015CB BKN110 OVC290 25/22 A2984 RMK CB ALQDS
PTRO 250950Z 20003KT 13SM BKN015CB BKN110 BKN290 25/23 A2983 RMK CB ALQDS
PTRO 250850Z 19006KT 10SM -SHRA BKN015CB BKN110 OVC290 25/22 A2981 RMK CB ALQDS
PTRO 250750Z 17007KT 13SM BKN015 BKN110 OVC290 25/22 A2979 RMK CB DSNT ALQDS
PTRO 250650Z 21007KT 13SM BKN015CB BKN110 OVC290 25/23 A2978 RMK CB OHD AND ALQDS
PTRO 250550Z 18004KT 8SM -SHRA BKN014CB BKN110 OVC290 25/23 A2978 RMK CB OHD AND ALQDS
PTRO 250450Z 09010KT 7SM -SHRA BKN014CB BKN100 OVC280 24/22 A2980 RMK CB OHD AND ALQDS
PTRO 250350Z 09005KT 8SM -SHRA BKN014CB BKN110 OVC290 25/23 A2981 RMK CB OHD AND ALQDS
PTRO 250255Z 13008KT 6SM -SHRA BKN014CB BKN110 OVC290 26/24 A2982 RMK CB OHD AND ALQDS
PTRO 250150Z 06004KT 13SM BKN015CB BKN110 OVC290 27/24 A2984 RMK CB ALQDS
PTRO 250050Z 04004KT 13SM BKN015CB BKN110 OVC290 26/23 A2986 RMK CB ALQDS
PTRO 242350Z 09003KT 13SM BKN015CB BKN110 OVC290 25/24 A2988 RMK CB OHD AND ALQDS
PTRO 242250Z 00000KT 13SM BKN014CB BKN100 OVC280 24/23 A2988 RMK CB ALQDS
PTRO 242150Z 03004KT 13SM BKN014CB BKN100 OVC280 23/23 A2986 RMK CB ALQDS
PTRO 242050Z 03005KT 13SM BKN014CB BKN100 OVC280 23/23 A2985 RMK CB ALQDS
PTRO 241950Z 06005KT 10SM -SHRA BKN014CB OVC280 23/23 A2984 RMK CB ALQDS
PTRO 241850Z COR 06007KT 9SM -SHRA BKN014CB OVC280 23/23 A2983 RMK CB ALQDS
PTRO 241750Z 07006KT 13SM BKN014CB OVC280 24/23 A2982 RMK CB ALQDS
PTRO 241650Z 05006KT 13SM BKN014CB OVC280 23/22 A2982 RMK CB ALQDS
PTRO 241550Z 06004KT 13SM BKN015CB OVC290 25/23 A2983 RMK CB ALQDS
PTRO 241450Z 07005KT 10SM -SHRA BKN015CB BKN110 OVC290 25/24 A2985 RMK CB ALQDS
PTRO 241350Z 09005KT 13SM BKN015CB BKN110 OVC290 26/24 A2987 RMK CB ALQDS
PTRO 241250Z 05005KT 13SM BKN014CB BKN110 OVC280 24/23 A2987 RMK CB ALQDS AND OHD
PTRO 241150Z 08004KT 12SM -SHRA BKN014CB BKN110 OVC280 24/23 A2986 RMK CB ALQDS AND OHD
PTRO 241050Z 09010G16KT 5SM SHRA BKN014CB OVC110 24/23 A2985 RMK CB ALQDS AND OHD
PTRO 241020Z 08020G34KT 8SM -SHRA BKN014CB OVC110 25/24 A2984 RMK CB ALQDS AND OHD
PTRO 240950Z 07005KT 13SM BKN014CB BKN110 OVC280 24/23 A2983 RMK CB ALQDS AND OHD
PTRO 240850Z COR 07006G10KT 10SM -SHRA BKN014CB BKN110 OVC280 23/23 A2982 RMK CB ALQDS AND OHD
PTRO 240750Z 07010G14KT 13SM BKN015CB BKN110 OVC290 27/24 A2981 RMK CB ALQDS
PTRO 240650Z 06009G19KT 13SM BKN015CB BKN110 OVC290 27/24 A2979 RMK CB OHD AND ALQDS
PTRO 240550Z 07010G21KT 13SM BKN015CB BKN110 BKN290 28/24 A2979 RMK CB SW-NW
PTRO 240513Z 08015G25KT 8SM -SHRA BKN014CB BKN110 BKN290 28/25 A2979 RMK CB OHD AND ALQDS
PTRO 240450Z 06009G19KT 13SM BKN015CB BKN120 BKN300 28/24 A2980 RMK CB ALQDS
PTRO 240359Z 08014G22KT 6SM -SHRA BKN014CB BKN110 OVC290 28/24 A2981 RMK CB OHD AND ALQDS
PTRO 240350Z 06007G18KT 13SM BKN014CB BKN110 BKN290 29/24 A2981 RMK CB OHD AND ALQDS
PTRO 240250Z 06011G18KT 14SM BKN015TCU BKN120 BKN300 29/24 A2984 RMK TCU E
PTRO 240150Z 04010G17KT 13SM BKN015 BKN120 BKN300 29/24 A2985